Ana Sayfa
METAR-TAF:

METAR-TAF

Havaalanları :

Padang, Endonezya

Enlem: 00-47-12S, Boylam: 100-16-50E, yükseklik: 5 m

METAR: eksik

Saat: 14:29 (07:29 UTC)

Tahmin

Rapor saat 05:00 UTC de 2 saat ve 29 dakika önce yapıldı.
Ayın 25'si saat 06 UTC'den ayın 26'si saat 06 UTC'ye kadar geçerli Tahmin
Rüzgar güney/güneybatıdan 10 kt
Görüş mesafesi 10 km veya daha fazla
2000 ft yükseklikte az bulutlu
Dönüşüyor
ayın 25'si saat 12 UTC'den ayın 25'si saat 14 UTC'ye kadar
Rüzgar kuzeydoğudan 5 kt

TAF: WIEE 250500Z 2506/2606 20010KT 9999 FEW020 BECMG 2512/2514 04005KT

4.000'den fazla havaalanı için hava durumu gözlemleri ve tahminleri (METAR ve TAF raporları).

Kullanılabilir istasyonlar harita üzerinde sarı ve kırmızı noktalarla gösterilir.

İstasyonun adını görmek için fareyi noktanın üzerinde gezdirin.

Sonrasında hava gözlem ve tahminlerini görmek için tıklayın.

Haritayı değiştirmek için: yaklaştırmak için siyah artı işaretli yeşil düğmeye ve uzaklaştırmak için de eksi işaretli düğmeye hızla tıklayın; bitişik haritalar için yeşil okları kullanın.


METAR-TAF: